createdAt,value
2018-03-31T00:00:05.375Z,23.37
2018-03-31T00:02:33.346Z,24.13
2018-03-31T00:05:01.275Z,24.77
2018-03-31T00:07:29.280Z,24.40
2018-03-31T00:09:57.241Z,24.67
2018-03-31T00:12:25.210Z,23.70
2018-03-31T00:14:53.162Z,24.00
2018-03-31T00:17:21.098Z,23.80
2018-03-31T00:19:49.109Z,24.53
2018-03-31T00:22:22.591Z,24.43
2018-03-31T00:24:50.567Z,24.50
2018-03-31T00:27:18.549Z,24.10
2018-03-31T00:29:46.517Z,23.83
2018-03-31T00:32:14.473Z,22.63
2018-03-31T00:34:42.430Z,23.87
2018-03-31T00:37:10.402Z,24.60
2018-03-31T00:39:38.363Z,24.70
2018-03-31T00:42:06.298Z,23.03
2018-03-31T00:44:34.281Z,22.67
2018-03-31T00:47:02.210Z,26.80
2018-03-31T00:49:30.222Z,23.67
2018-03-31T00:51:58.167Z,22.93
2018-03-31T00:54:26.118Z,21.67
2018-03-31T00:56:54.118Z,22.90
2018-03-31T00:59:22.042Z,20.90
2018-03-31T01:01:50.014Z,22.17
2018-03-31T01:04:18.007Z,23.47
2018-03-31T01:06:45.991Z,21.93
2018-03-31T01:09:13.930Z,23.30
2018-03-31T01:11:41.858Z,22.70
2018-03-31T01:14:09.836Z,22.17
2018-03-31T01:16:37.834Z,21.77
2018-03-31T01:19:05.790Z,22.83
2018-03-31T01:21:33.797Z,22.77
2018-03-31T01:24:01.770Z,23.40
2018-03-31T01:26:29.763Z,23.30
2018-03-31T01:28:57.754Z,22.23
2018-03-31T01:31:25.753Z,23.60
2018-03-31T01:33:53.760Z,23.53
2018-03-31T01:36:21.708Z,22.07
2018-03-31T01:38:49.670Z,22.93
2018-03-31T01:41:17.689Z,24.43
2018-03-31T01:43:45.702Z,25.27
2018-03-31T01:46:13.678Z,29.80
2018-03-31T01:48:41.639Z,26.20
2018-03-31T01:51:09.622Z,29.13
2018-03-31T01:53:37.614Z,25.63
2018-03-31T01:56:05.610Z,24.30
2018-03-31T01:58:33.553Z,25.43
2018-03-31T02:01:01.534Z,23.57
2018-03-31T02:03:29.494Z,23.90
2018-03-31T02:05:57.493Z,22.63
2018-03-31T02:08:25.478Z,23.57
2018-03-31T02:10:53.482Z,23.80
2018-03-31T02:13:21.434Z,24.07
2018-03-31T02:15:49.452Z,22.70
2018-03-31T02:18:17.401Z,24.27
2018-03-31T02:20:45.379Z,23.00
2018-03-31T02:23:13.379Z,24.00
2018-03-31T02:25:41.350Z,25.03
2018-03-31T02:28:09.354Z,23.60
2018-03-31T02:30:37.333Z,23.80
2018-03-31T02:33:05.308Z,23.60
2018-03-31T02:35:33.278Z,26.23
2018-03-31T02:38:01.270Z,27.10
2018-03-31T02:40:29.199Z,27.40
2018-03-31T02:42:57.145Z,30.57
2018-03-31T02:45:25.118Z,30.47
2018-03-31T02:47:53.071Z,30.50
2018-03-31T02:50:21.045Z,31.33
2018-03-31T02:52:49.016Z,32.33
2018-03-31T02:55:16.999Z,33.43
2018-03-31T02:57:44.990Z,33.57
2018-03-31T03:00:13.558Z,33.47
2018-03-31T03:02:41.466Z,35.80
2018-03-31T03:05:09.374Z,33.90
2018-03-31T03:07:37.335Z,35.17
2018-03-31T03:10:05.262Z,35.03
2018-03-31T03:12:33.222Z,34.60
2018-03-31T03:15:01.157Z,36.30
2018-03-31T03:17:28.830Z,34.83
2018-03-31T03:19:56.493Z,33.87
2018-03-31T03:22:24.136Z,34.43
2018-03-31T03:24:51.808Z,35.10
2018-03-31T03:27:19.450Z,35.40
2018-03-31T03:29:47.113Z,36.50
2018-03-31T03:32:14.737Z,36.23
2018-03-31T03:34:42.407Z,35.50
2018-03-31T03:37:10.089Z,36.57
2018-03-31T03:39:37.736Z,37.37
2018-03-31T03:42:05.402Z,37.43
2018-03-31T03:44:33.065Z,38.20
2018-03-31T03:47:00.731Z,37.90
2018-03-31T03:49:28.359Z,39.20
2018-03-31T03:51:55.996Z,38.63
2018-03-31T03:54:23.671Z,38.17
2018-03-31T03:56:51.341Z,38.50
2018-03-31T03:59:18.982Z,36.00
2018-03-31T04:01:46.646Z,36.60
2018-03-31T04:04:14.306Z,34.20
2018-03-31T04:06:41.938Z,31.60
2018-03-31T04:09:09.606Z,30.73
2018-03-31T04:11:37.239Z,32.03
2018-03-31T04:14:04.902Z,35.23
2018-03-31T04:16:32.540Z,32.77
2018-03-31T04:19:00.221Z,30.30
2018-03-31T04:21:27.894Z,31.27
2018-03-31T04:23:55.526Z,29.83
2018-03-31T04:26:23.214Z,30.87
2018-03-31T04:28:50.845Z,30.67
2018-03-31T04:31:18.474Z,31.27
2018-03-31T04:33:46.142Z,33.80
2018-03-31T04:36:13.810Z,40.97
2018-03-31T04:38:41.474Z,43.80
2018-03-31T04:41:09.102Z,41.57
2018-03-31T04:43:36.810Z,43.73
2018-03-31T04:46:04.482Z,46.00
2018-03-31T04:48:32.113Z,42.77
2018-03-31T04:50:59.761Z,44.20
2018-03-31T04:53:27.445Z,43.43
2018-03-31T04:55:55.111Z,42.10
2018-03-31T04:58:22.778Z,43.40
2018-03-31T05:00:50.413Z,42.17
2018-03-31T05:03:18.120Z,41.70
2018-03-31T05:05:45.822Z,41.20
2018-03-31T05:08:13.462Z,38.57
2018-03-31T05:10:41.134Z,36.53
2018-03-31T05:13:08.827Z,36.97
2018-03-31T05:15:36.487Z,31.10
2018-03-31T05:18:04.162Z,31.40
2018-03-31T05:20:31.802Z,32.13
2018-03-31T05:22:59.474Z,33.87
2018-03-31T05:25:27.154Z,32.37
2018-03-31T05:27:54.858Z,30.97
2018-03-31T05:30:22.499Z,31.60
2018-03-31T05:32:50.130Z,31.27
2018-03-31T05:35:17.812Z,32.23
2018-03-31T05:37:45.443Z,28.63
2018-03-31T05:40:13.158Z,27.37
2018-03-31T05:42:40.794Z,28.77
2018-03-31T05:45:08.487Z,29.60
2018-03-31T05:47:36.123Z,27.57
2018-03-31T05:50:03.762Z,27.23
2018-03-31T05:52:31.435Z,26.80
2018-03-31T05:54:59.101Z,26.10
2018-03-31T05:57:26.737Z,25.50
2018-03-31T05:59:54.419Z,26.30
2018-03-31T06:02:22.061Z,26.63
2018-03-31T06:04:49.764Z,26.63
2018-03-31T06:07:17.397Z,25.90
2018-03-31T06:09:45.034Z,24.70
2018-03-31T06:12:12.821Z,24.50
2018-03-31T06:14:40.480Z,23.37
2018-03-31T06:17:08.223Z,23.10
2018-03-31T06:19:35.942Z,23.10
2018-03-31T06:22:03.575Z,20.27
2018-03-31T06:24:31.214Z,21.30
2018-03-31T06:26:58.899Z,22.43
2018-03-31T06:29:26.570Z,22.30
2018-03-31T06:31:54.225Z,22.70
2018-03-31T06:34:21.898Z,22.17
2018-03-31T06:36:49.765Z,22.80
2018-03-31T06:39:17.528Z,22.87
2018-03-31T06:41:45.178Z,22.17
2018-03-31T06:44:12.839Z,22.30
2018-03-31T06:46:40.613Z,22.37
2018-03-31T06:49:08.282Z,22.53
2018-03-31T06:51:36.096Z,23.83
2018-03-31T06:54:03.814Z,22.10
2018-03-31T06:56:31.538Z,22.40
2018-03-31T06:58:59.240Z,23.27
2018-03-31T07:01:27.007Z,23.40
2018-03-31T07:03:54.770Z,40.73
2018-03-31T07:06:22.402Z,41.77
2018-03-31T07:08:50.117Z,41.43
2018-03-31T07:11:17.756Z,39.60
2018-03-31T07:13:45.526Z,40.67
2018-03-31T07:16:13.203Z,41.20
2018-03-31T07:18:40.842Z,39.63
2018-03-31T07:21:08.518Z,40.17
2018-03-31T07:23:36.190Z,38.03
2018-03-31T07:26:03.862Z,38.83
2018-03-31T07:28:31.498Z,38.70
2018-03-31T07:30:59.172Z,37.30
2018-03-31T07:33:26.936Z,35.87
2018-03-31T07:35:54.694Z,34.90
2018-03-31T07:38:22.459Z,36.57
2018-03-31T07:40:50.236Z,34.37
2018-03-31T07:43:17.915Z,32.53
2018-03-31T07:45:45.655Z,31.93
2018-03-31T07:48:13.590Z,31.03
2018-03-31T07:50:41.505Z,32.00
2018-03-31T07:53:09.195Z,32.20
2018-03-31T07:55:37.038Z,32.33
2018-03-31T07:58:04.692Z,32.97
2018-03-31T08:00:32.463Z,32.20
2018-03-31T08:03:00.119Z,32.07
2018-03-31T08:05:27.808Z,30.77
2018-03-31T08:07:55.485Z,32.67
2018-03-31T08:10:23.137Z,32.60
2018-03-31T08:12:50.888Z,34.30
2018-03-31T08:15:18.648Z,33.20
2018-03-31T08:17:46.420Z,32.63
2018-03-31T08:20:14.123Z,32.90
2018-03-31T08:22:41.843Z,32.37
2018-03-31T08:25:09.507Z,30.33
2018-03-31T08:27:37.267Z,30.00
2018-03-31T08:30:05.038Z,29.70
2018-03-31T08:32:32.809Z,30.27
2018-03-31T08:35:00.470Z,28.83
2018-03-31T08:37:28.237Z,29.10
2018-03-31T08:39:55.999Z,28.80
2018-03-31T08:42:23.674Z,24.80
2018-03-31T08:44:51.332Z,26.33
2018-03-31T08:47:18.986Z,26.60
2018-03-31T08:49:46.659Z,25.63
2018-03-31T08:52:14.419Z,21.93
2018-03-31T08:54:42.094Z,21.93
2018-03-31T08:57:09.729Z,21.47
2018-03-31T08:59:37.620Z,21.57
2018-03-31T09:02:05.489Z,26.13
2018-03-31T09:04:33.349Z,20.53
2018-03-31T09:07:01.002Z,22.07
2018-03-31T09:09:28.771Z,21.70
2018-03-31T09:11:56.651Z,20.87
2018-03-31T09:14:24.320Z,20.10
2018-03-31T09:16:51.972Z,20.80
2018-03-31T09:19:19.803Z,20.73
2018-03-31T09:21:47.499Z,20.30
2018-03-31T09:24:15.180Z,20.37
2018-03-31T09:26:42.941Z,20.37
2018-03-31T09:29:10.806Z,20.10
2018-03-31T09:31:38.467Z,19.27
2018-03-31T09:34:06.236Z,19.80
2018-03-31T09:36:34.091Z,19.87
2018-03-31T09:39:01.836Z,19.83
2018-03-31T09:41:29.519Z,20.10
2018-03-31T09:43:57.286Z,19.73
2018-03-31T09:46:25.061Z,20.33
2018-03-31T09:48:52.718Z,20.73
2018-03-31T09:51:20.488Z,19.80
2018-03-31T09:53:48.138Z,20.67
2018-03-31T09:56:15.815Z,20.70
2018-03-31T09:58:43.585Z,20.87
2018-03-31T10:01:11.244Z,20.60
2018-03-31T10:03:38.914Z,20.17
2018-03-31T10:06:06.673Z,20.40
2018-03-31T10:08:34.314Z,21.73
2018-03-31T10:11:02.104Z,20.07
2018-03-31T10:13:29.858Z,20.50
2018-03-31T10:15:57.542Z,21.07
2018-03-31T10:18:25.400Z,21.27
2018-03-31T10:20:53.164Z,21.23
2018-03-31T10:23:21.035Z,22.03
2018-03-31T10:25:48.747Z,21.83
2018-03-31T10:28:16.462Z,22.27
2018-03-31T10:30:44.110Z,22.37
2018-03-31T10:33:11.896Z,21.60
2018-03-31T10:35:39.535Z,22.53
2018-03-31T10:38:07.428Z,21.43
2018-03-31T10:40:35.171Z,21.93
2018-03-31T10:43:02.963Z,22.00
2018-03-31T10:45:30.718Z,21.77
2018-03-31T10:47:58.418Z,20.90
2018-03-31T10:50:26.176Z,20.40
2018-03-31T10:52:54.025Z,21.07
2018-03-31T10:55:21.684Z,20.77
2018-03-31T10:57:49.318Z,20.07
2018-03-31T11:00:17.119Z,20.00
2018-03-31T11:02:44.983Z,19.37
2018-03-31T11:05:12.753Z,20.10
2018-03-31T11:07:40.607Z,19.47
2018-03-31T11:10:08.280Z,20.63
2018-03-31T11:12:36.109Z,21.10
2018-03-31T11:15:03.802Z,20.03
2018-03-31T11:17:31.474Z,21.20
2018-03-31T11:19:59.308Z,21.67
2018-03-31T11:22:26.998Z,20.97
2018-03-31T11:24:54.841Z,21.70
2018-03-31T11:27:22.540Z,23.60
2018-03-31T11:29:50.226Z,24.10
2018-03-31T11:32:17.883Z,23.30
2018-03-31T11:34:45.631Z,23.80
2018-03-31T11:37:13.315Z,24.57
2018-03-31T11:39:41.042Z,24.63
2018-03-31T11:42:08.714Z,24.97
2018-03-31T11:44:36.381Z,25.90
2018-03-31T11:47:04.152Z,25.07
2018-03-31T11:49:31.913Z,23.53
2018-03-31T11:51:59.682Z,24.57
2018-03-31T11:54:27.326Z,24.13
2018-03-31T11:56:55.054Z,24.33
2018-03-31T11:59:22.772Z,25.40
2018-03-31T12:01:50.540Z,24.67
2018-03-31T12:04:18.407Z,24.63
2018-03-31T12:06:46.376Z,25.27
2018-03-31T12:09:14.031Z,25.47
2018-03-31T12:11:41.828Z,24.73
2018-03-31T12:14:09.668Z,24.97
2018-03-31T12:16:37.411Z,26.33
2018-03-31T12:19:05.211Z,25.00
2018-03-31T12:21:32.922Z,25.50
2018-03-31T12:24:00.614Z,25.67
2018-03-31T12:26:28.501Z,25.03
2018-03-31T12:28:56.181Z,24.80
2018-03-31T12:31:24.032Z,24.63
2018-03-31T12:33:51.691Z,25.53
2018-03-31T12:36:19.463Z,25.13
2018-03-31T12:38:47.124Z,25.50
2018-03-31T12:41:14.982Z,25.90
2018-03-31T12:43:42.657Z,24.20
2018-03-31T12:46:10.414Z,24.63
2018-03-31T12:48:38.050Z,25.00
2018-03-31T12:51:05.948Z,23.60
2018-03-31T12:53:33.582Z,25.13
2018-03-31T12:56:01.482Z,24.97
2018-03-31T12:58:29.315Z,24.27
2018-03-31T13:00:57.117Z,24.23
2018-03-31T13:03:24.810Z,24.87
2018-03-31T13:05:52.445Z,24.37
2018-03-31T13:08:20.207Z,23.10
2018-03-31T13:10:47.980Z,23.53
2018-03-31T13:13:15.754Z,22.70
2018-03-31T13:15:43.506Z,22.77
2018-03-31T13:18:11.266Z,21.93
2018-03-31T13:20:38.894Z,22.37
2018-03-31T13:23:06.558Z,21.97
2018-03-31T13:25:34.241Z,22.93
2018-03-31T13:28:02.023Z,27.33
2018-03-31T13:30:29.654Z,26.13
2018-03-31T13:32:57.375Z,23.13
2018-03-31T13:35:25.118Z,23.07
2018-03-31T13:37:52.887Z,22.80
2018-03-31T13:40:20.530Z,21.10
2018-03-31T13:42:48.315Z,21.53
2018-03-31T13:45:16.081Z,21.47
2018-03-31T13:47:43.840Z,19.73
2018-03-31T13:50:11.530Z,20.87
2018-03-31T13:52:39.198Z,20.43
2018-03-31T13:55:06.929Z,20.97
2018-03-31T13:57:34.758Z,21.23
2018-03-31T14:00:02.390Z,22.30
2018-03-31T14:02:30.152Z,21.13
2018-03-31T14:04:57.786Z,20.97
2018-03-31T14:07:25.453Z,19.97
2018-03-31T14:09:53.191Z,19.13
2018-03-31T14:12:20.867Z,20.27
2018-03-31T14:14:48.545Z,20.20
2018-03-31T14:17:16.215Z,19.83
2018-03-31T14:19:43.868Z,20.03
2018-03-31T14:22:11.630Z,19.70
2018-03-31T14:24:39.282Z,20.97
2018-03-31T14:27:07.062Z,20.87
2018-03-31T14:29:34.755Z,20.63
2018-03-31T14:32:02.492Z,19.87
2018-03-31T14:34:30.250Z,19.17
2018-03-31T14:36:57.918Z,19.33
2018-03-31T14:39:25.688Z,18.40
2018-03-31T14:41:53.467Z,17.77
2018-03-31T14:44:21.098Z,16.90
2018-03-31T14:46:48.876Z,17.67
2018-03-31T14:49:16.545Z,18.30
2018-03-31T14:51:44.210Z,19.40
2018-03-31T14:54:11.880Z,18.63
2018-03-31T14:56:39.514Z,18.30
2018-03-31T14:59:07.298Z,18.63
2018-03-31T15:01:34.961Z,18.23
2018-03-31T15:04:02.632Z,18.17
2018-03-31T15:06:30.320Z,17.90
2018-03-31T15:08:57.969Z,18.67
2018-03-31T15:11:25.657Z,18.03
2018-03-31T15:13:53.334Z,19.50
2018-03-31T15:16:21.049Z,19.07
2018-03-31T15:18:48.678Z,19.00
2018-03-31T15:21:16.345Z,19.33
2018-03-31T15:23:44.015Z,19.47
2018-03-31T15:26:11.698Z,18.80
2018-03-31T15:28:39.383Z,19.00
2018-03-31T15:31:07.005Z,19.77
2018-03-31T15:33:34.678Z,19.93
2018-03-31T15:36:02.352Z,19.70
2018-03-31T15:38:30.882Z,19.10
2018-03-31T15:40:58.550Z,19.33
2018-03-31T15:43:26.218Z,19.10
2018-03-31T15:45:53.884Z,18.27
2018-03-31T15:48:21.518Z,19.23
2018-03-31T15:50:49.198Z,18.70
2018-03-31T15:53:16.834Z,19.40
2018-03-31T15:55:44.471Z,19.67
2018-03-31T15:58:12.145Z,19.97
2018-03-31T16:00:39.781Z,20.03
2018-03-31T16:03:07.450Z,21.97
2018-03-31T16:05:35.078Z,22.00
2018-03-31T16:08:02.758Z,21.40
2018-03-31T16:10:30.390Z,21.77
2018-03-31T16:12:58.025Z,21.00
2018-03-31T16:15:25.694Z,20.50
2018-03-31T16:17:53.361Z,19.67
2018-03-31T16:20:21.026Z,19.57
2018-03-31T16:22:48.681Z,20.83
2018-03-31T16:25:16.350Z,21.80
2018-03-31T16:27:43.990Z,20.60
2018-03-31T16:30:11.658Z,21.40
2018-03-31T16:32:39.325Z,20.57
2018-03-31T16:35:07.000Z,21.00
2018-03-31T16:37:34.668Z,21.40
2018-03-31T16:40:02.334Z,21.80
2018-03-31T16:42:30.018Z,21.13
2018-03-31T16:44:57.686Z,20.83
2018-03-31T16:47:25.350Z,22.27
2018-03-31T16:49:53.026Z,19.97
2018-03-31T16:52:20.673Z,20.43
2018-03-31T16:54:48.362Z,20.63
2018-03-31T16:57:15.998Z,21.67
2018-03-31T16:59:43.674Z,20.07
2018-03-31T17:02:11.305Z,21.77
2018-03-31T17:04:38.948Z,21.50
2018-03-31T17:07:06.626Z,23.13
2018-03-31T17:09:34.254Z,23.87
2018-03-31T17:12:01.886Z,23.70
2018-03-31T17:14:29.563Z,23.80
2018-03-31T17:16:57.291Z,25.03
2018-03-31T17:19:24.926Z,28.20
2018-03-31T17:21:52.607Z,30.27
2018-03-31T17:24:20.243Z,33.57
2018-03-31T17:26:47.918Z,33.73
2018-03-31T17:29:15.550Z,31.77
2018-03-31T17:31:43.183Z,31.50
2018-03-31T17:34:10.862Z,31.67
2018-03-31T17:36:38.562Z,30.73
2018-03-31T17:39:06.237Z,32.57
2018-03-31T17:41:33.867Z,31.93
2018-03-31T17:44:01.533Z,30.83
2018-03-31T17:46:29.167Z,30.17
2018-03-31T17:48:56.802Z,28.17
2018-03-31T17:51:24.473Z,29.93
2018-03-31T17:53:52.152Z,30.53
2018-03-31T17:56:19.788Z,29.83
2018-03-31T17:58:47.468Z,31.63
2018-03-31T18:01:15.123Z,32.30
2018-03-31T18:03:42.805Z,34.00
2018-03-31T18:06:10.485Z,32.43
2018-03-31T18:08:38.122Z,34.13
2018-03-31T18:11:05.794Z,33.30
2018-03-31T18:13:33.462Z,32.80
2018-03-31T18:16:01.108Z,35.10
2018-03-31T18:18:28.802Z,33.07
2018-03-31T18:20:56.430Z,33.27
2018-03-31T18:23:24.070Z,33.53
2018-03-31T18:25:51.742Z,34.30
2018-03-31T18:28:19.408Z,32.40
2018-03-31T18:30:47.042Z,33.17
2018-03-31T18:33:14.732Z,32.50
2018-03-31T18:35:42.369Z,32.90
2018-03-31T18:38:10.034Z,34.27
2018-03-31T18:40:37.662Z,31.00
2018-03-31T18:43:05.299Z,33.67
2018-03-31T18:45:32.976Z,33.77
2018-03-31T18:48:00.624Z,33.30
2018-03-31T18:50:28.295Z,36.07
2018-03-31T18:52:55.934Z,35.97
2018-03-31T18:55:23.614Z,33.30
2018-03-31T18:57:51.250Z,33.13
2018-03-31T19:00:18.880Z,34.50
2018-03-31T19:02:46.557Z,34.63
2018-03-31T19:05:14.230Z,30.93
2018-03-31T19:07:41.863Z,26.40
2018-03-31T19:10:09.536Z,27.80
2018-03-31T19:12:37.206Z,29.03
2018-03-31T19:15:04.837Z,25.37
2018-03-31T19:17:32.565Z,21.63
2018-03-31T19:20:00.194Z,22.37
2018-03-31T19:22:27.822Z,21.97
2018-03-31T19:25:00.910Z,19.40
2018-03-31T19:27:28.597Z,18.37
2018-03-31T19:29:56.252Z,17.17
2018-03-31T19:32:23.917Z,16.83
2018-03-31T19:34:51.547Z,15.70
2018-03-31T19:37:19.222Z,15.80
2018-03-31T19:39:50.776Z,16.63
2018-03-31T19:42:18.459Z,15.03
2018-03-31T19:44:46.702Z,16.10
2018-03-31T19:47:14.374Z,16.07
2018-03-31T19:49:42.006Z,15.97
2018-03-31T19:52:09.638Z,15.50
2018-03-31T19:54:37.306Z,15.17
2018-03-31T19:57:04.974Z,17.10
2018-03-31T19:59:32.611Z,16.17
2018-03-31T20:02:00.380Z,15.47
2018-03-31T20:04:28.043Z,16.30
2018-03-31T20:06:55.678Z,15.60
2018-03-31T20:09:23.393Z,14.80
2018-03-31T20:11:51.064Z,14.80
2018-03-31T20:14:18.737Z,14.23
2018-03-31T20:16:46.371Z,14.10
2018-03-31T20:19:14.046Z,14.57
2018-03-31T20:21:41.684Z,13.13
2018-03-31T20:24:09.322Z,13.60
2018-03-31T20:26:37.005Z,12.93
2018-03-31T20:29:04.674Z,14.40
2018-03-31T20:31:32.342Z,14.37
2018-03-31T20:33:59.973Z,14.10
2018-03-31T20:36:27.642Z,13.47
2018-03-31T20:38:55.319Z,13.23
2018-03-31T20:41:22.948Z,14.07
2018-03-31T20:43:50.613Z,13.40
2018-03-31T20:46:18.292Z,13.57
2018-03-31T20:48:45.966Z,14.00
2018-03-31T20:51:13.666Z,12.83
2018-03-31T20:53:41.307Z,13.07
2018-03-31T20:56:08.991Z,14.23
2018-03-31T20:58:36.630Z,13.20
2018-03-31T21:01:04.267Z,12.50
2018-03-31T21:03:31.931Z,11.97
2018-03-31T21:05:59.568Z,12.70
2018-03-31T21:08:27.202Z,12.53
2018-03-31T21:10:54.835Z,11.10
2018-03-31T21:13:22.503Z,11.00
2018-03-31T21:15:50.206Z,10.73
2018-03-31T21:18:17.851Z,13.47
2018-03-31T21:20:45.526Z,13.63
2018-03-31T21:23:13.208Z,12.10
2018-03-31T21:25:40.842Z,12.77
2018-03-31T21:28:08.509Z,11.77
2018-03-31T21:30:36.178Z,13.20
2018-03-31T21:33:03.843Z,11.30
2018-03-31T21:35:31.548Z,11.33
2018-03-31T21:37:59.242Z,12.73
2018-03-31T21:40:26.910Z,11.27
2018-03-31T21:42:54.541Z,12.30
2018-03-31T21:45:22.217Z,12.23
2018-03-31T21:47:49.851Z,13.33
2018-03-31T21:50:17.523Z,13.93
2018-03-31T21:52:45.166Z,14.13
2018-03-31T21:55:12.838Z,14.53
2018-03-31T21:57:40.484Z,13.47
2018-03-31T22:00:08.162Z,13.17
2018-03-31T22:02:35.791Z,12.13
2018-03-31T22:05:03.476Z,11.70
2018-03-31T22:07:31.150Z,12.27
2018-03-31T22:09:58.818Z,11.90
2018-03-31T22:12:26.479Z,12.37
2018-03-31T22:14:59.561Z,14.63
2018-03-31T22:17:27.190Z,15.83
2018-03-31T22:19:54.870Z,15.13
2018-03-31T22:22:22.512Z,12.93
2018-03-31T22:24:50.142Z,13.93
2018-03-31T22:27:17.822Z,14.43
2018-03-31T22:29:45.463Z,14.30
2018-03-31T22:32:13.106Z,14.77
2018-03-31T22:34:40.776Z,13.87
2018-03-31T22:37:08.405Z,13.93
2018-03-31T22:39:36.070Z,15.17
2018-03-31T22:42:03.749Z,12.50
2018-03-31T22:44:31.377Z,9.57
2018-03-31T22:46:59.052Z,9.40
2018-03-31T22:49:26.677Z,8.73
2018-03-31T22:51:54.322Z,9.57
2018-03-31T22:54:21.990Z,9.17
2018-03-31T22:56:49.609Z,8.70
2018-03-31T22:59:17.270Z,8.03
2018-03-31T23:01:44.904Z,8.17
2018-03-31T23:04:12.853Z,8.77
2018-03-31T23:06:40.778Z,9.13
2018-03-31T23:09:08.733Z,8.73
2018-03-31T23:11:36.650Z,8.27
2018-03-31T23:14:04.636Z,9.20
2018-03-31T23:16:32.581Z,8.70
2018-03-31T23:19:00.537Z,8.83
2018-03-31T23:21:28.510Z,8.50
2018-03-31T23:23:56.434Z,8.83
2018-03-31T23:26:24.405Z,8.70
2018-03-31T23:28:52.321Z,9.13
2018-03-31T23:31:20.238Z,8.43
2018-03-31T23:33:48.186Z,9.07
2018-03-31T23:36:16.149Z,10.53
2018-03-31T23:38:43.809Z,10.40
2018-03-31T23:41:11.481Z,10.77
2018-03-31T23:43:39.146Z,11.93
2018-03-31T23:46:06.832Z,12.80
2018-03-31T23:48:34.478Z,12.40
2018-03-31T23:51:02.150Z,13.93
2018-03-31T23:53:29.826Z,14.33
2018-03-31T23:55:57.462Z,15.57
2018-03-31T23:58:25.139Z,13.03
